Cooperstown, North Dakota
Current Conditions -  °F | °C
As of 6:55 PM on Wednesday 22 Oct 2014 (Local Time) from KBAC Reporting Station
Few Clouds Few Clouds  
Wind Chill: 10°   Ceiling: Unl
Heat Index: 10°   Visibility: 10mi
Dew Point: 10°   Wind: 10mph
Humidity: 100%   Direction: 210°SSW
Pressure: 29.87"   Gusts: NA
Location:  47.44°N, 98.12°W
Report Text: KBAC 222355Z AUTO 21009KT 10SM FEW110 10/10 A2987 RMK AO2
Loading
Personal Weather Stations






























Interactive Weather Map
Tropical Storm Tracking
New forecast layout! Learn more

10-Day Weather Forecast

Advertisements
Track Severe Weather on mobile